sensor_id;sensor_type;location;lat;lon;timestamp;P1;durP1;ratioP1;P2;durP2;ratioP2
40951;SDS011;26682;51.660;19.338;2023-06-10T00:00:10;7.85;;;6.63;;
40951;SDS011;26682;51.660;19.338;2023-06-10T00:03:16;13.90;;;6.78;;
40951;SDS011;26682;51.660;19.338;2023-06-10T00:05:59;7.78;;;6.63;;
40951;SDS011;26682;51.660;19.338;2023-06-10T00:08:42;10.48;;;6.82;;
40951;SDS011;26682;51.660;19.338;2023-06-10T00:11:24;9.32;;;6.63;;
40951;SDS011;26682;51.660;19.338;2023-06-10T00:14:07;8.20;;;6.78;;
40951;SDS011;26682;51.660;19.338;2023-06-10T00:16:50;9.73;;;6.85;;
40951;SDS011;26682;51.660;19.338;2023-06-10T00:19:34;7.82;;;6.45;;
40951;SDS011;26682;51.660;19.338;2023-06-10T00:22:16;7.95;;;6.35;;
40951;SDS011;26682;51.660;19.338;2023-06-10T00:24:59;9.20;;;7.10;;
40951;SDS011;26682;51.660;19.338;2023-06-10T00:27:42;10.23;;;7.20;;
40951;SDS011;26682;51.660;19.338;2023-06-10T00:30:24;7.85;;;6.95;;
40951;SDS011;26682;51.660;19.338;2023-06-10T00:33:08;8.90;;;7.10;;
40951;SDS011;26682;51.660;19.338;2023-06-10T00:35:50;8.10;;;6.78;;
40951;SDS011;26682;51.660;19.338;2023-06-10T00:38:32;11.10;;;6.82;;
40951;SDS011;26682;51.660;19.338;2023-06-10T00:41:16;7.85;;;6.93;;
40951;SDS011;26682;51.660;19.338;2023-06-10T00:43:59;8.35;;;7.20;;
40951;SDS011;26682;51.660;19.338;2023-06-10T00:46:42;8.13;;;7.30;;
40951;SDS011;26682;51.660;19.338;2023-06-10T00:49:24;9.35;;;7.90;;
40951;SDS011;26682;51.660;19.338;2023-06-10T00:52:07;8.60;;;7.15;;
40951;SDS011;26682;51.660;19.338;2023-06-10T00:54:51;9.68;;;7.25;;
40951;SDS011;26682;51.660;19.338;2023-06-10T00:57:34;9.65;;;7.85;;
40951;SDS011;26682;51.660;19.338;2023-06-10T01:00:17;10.23;;;8.52;;
40951;SDS011;26682;51.660;19.338;2023-06-10T01:03:00;11.15;;;8.18;;
40951;SDS011;26682;51.660;19.338;2023-06-10T01:05:43;8.73;;;7.80;;
40951;SDS011;26682;51.660;19.338;2023-06-10T01:08:35;10.23;;;7.60;;
40951;SDS011;26682;51.660;19.338;2023-06-10T01:11:29;9.88;;;7.80;;
40951;SDS011;26682;51.660;19.338;2023-06-10T01:14:29;7.75;;;7.10;;
40951;SDS011;26682;51.660;19.338;2023-06-10T01:17:14;10.75;;;8.38;;
40951;SDS011;26682;51.660;19.338;2023-06-10T01:19:59;8.35;;;7.57;;
40951;SDS011;26682;51.660;19.338;2023-06-10T01:22:43;9.38;;;7.88;;
40951;SDS011;26682;51.660;19.338;2023-06-10T01:25:28;8.95;;;8.00;;
40951;SDS011;26682;51.660;19.338;2023-06-10T01:28:28;8.95;;;8.05;;
40951;SDS011;26682;51.660;19.338;2023-06-10T01:31:34;8.82;;;8.02;;
40951;SDS011;26682;51.660;19.338;2023-06-10T01:34:31;10.63;;;8.13;;
40951;SDS011;26682;51.660;19.338;2023-06-10T01:37:16;11.73;;;8.73;;
40951;SDS011;26682;51.660;19.338;2023-06-10T01:40:02;9.63;;;8.32;;
40951;SDS011;26682;51.660;19.338;2023-06-10T01:42:49;9.63;;;8.40;;
40951;SDS011;26682;51.660;19.338;2023-06-10T01:45:34;15.05;;;8.80;;
40951;SDS011;26682;51.660;19.338;2023-06-10T01:48:16;9.25;;;8.30;;
40951;SDS011;26682;51.660;19.338;2023-06-10T01:50:59;10.63;;;8.85;;
40951;SDS011;26682;51.660;19.338;2023-06-10T01:53:41;9.90;;;8.98;;
40951;SDS011;26682;51.660;19.338;2023-06-10T01:56:24;11.38;;;8.55;;
40951;SDS011;26682;51.660;19.338;2023-06-10T01:59:06;10.70;;;8.88;;
40951;SDS011;26682;51.660;19.338;2023-06-10T02:01:49;9.60;;;8.60;;
40951;SDS011;26682;51.660;19.338;2023-06-10T02:04:31;10.32;;;8.95;;
40951;SDS011;26682;51.660;19.338;2023-06-10T02:07:16;10.00;;;9.00;;
40951;SDS011;26682;51.660;19.338;2023-06-10T02:09:58;9.30;;;8.38;;
40951;SDS011;26682;51.660;19.338;2023-06-10T02:12:43;9.65;;;8.60;;
40951;SDS011;26682;51.660;19.338;2023-06-10T02:15:25;10.57;;;9.38;;
40951;SDS011;26682;51.660;19.338;2023-06-10T02:18:08;12.07;;;8.63;;
40951;SDS011;26682;51.660;19.338;2023-06-10T02:20:52;9.02;;;7.95;;
40951;SDS011;26682;51.660;19.338;2023-06-10T02:23:36;9.73;;;8.82;;
40951;SDS011;26682;51.660;19.338;2023-06-10T02:26:19;9.68;;;8.73;;
40951;SDS011;26682;51.660;19.338;2023-06-10T02:29:02;11.23;;;8.32;;
40951;SDS011;26682;51.660;19.338;2023-06-10T02:31:45;11.13;;;8.48;;
40951;SDS011;26682;51.660;19.338;2023-06-10T02:34:27;9.63;;;8.30;;
40951;SDS011;26682;51.660;19.338;2023-06-10T02:37:11;9.63;;;8.68;;
40951;SDS011;26682;51.660;19.338;2023-06-10T02:39:54;10.98;;;8.20;;
40951;SDS011;26682;51.660;19.338;2023-06-10T02:42:38;11.45;;;8.95;;
40951;SDS011;26682;51.660;19.338;2023-06-10T02:45:21;10.15;;;9.13;;
40951;SDS011;26682;51.660;19.338;2023-06-10T02:48:03;9.15;;;8.35;;
40951;SDS011;26682;51.660;19.338;2023-06-10T02:50:47;11.18;;;8.57;;
40951;SDS011;26682;51.660;19.338;2023-06-10T02:53:36;9.43;;;8.55;;
40951;SDS011;26682;51.660;19.338;2023-06-10T02:56:22;8.35;;;7.55;;
40951;SDS011;26682;51.660;19.338;2023-06-10T02:59:05;8.63;;;7.82;;
40951;SDS011;26682;51.660;19.338;2023-06-10T03:01:49;9.02;;;7.85;;
40951;SDS011;26682;51.660;19.338;2023-06-10T03:04:32;8.85;;;7.97;;
40951;SDS011;26682;51.660;19.338;2023-06-10T03:07:21;8.77;;;7.95;;
40951;SDS011;26682;51.660;19.338;2023-06-10T03:10:07;10.10;;;8.02;;
40951;SDS011;26682;51.660;19.338;2023-06-10T03:12:53;13.07;;;7.95;;
40951;SDS011;26682;51.660;19.338;2023-06-10T03:15:37;8.52;;;7.72;;
40951;SDS011;26682;51.660;19.338;2023-06-10T03:18:26;11.30;;;7.63;;
40951;SDS011;26682;51.660;19.338;2023-06-10T03:21:09;11.23;;;7.43;;
40951;SDS011;26682;51.660;19.338;2023-06-10T03:23:53;8.60;;;7.72;;
40951;SDS011;26682;51.660;19.338;2023-06-10T03:26:36;9.98;;;7.40;;
40951;SDS011;26682;51.660;19.338;2023-06-10T03:29:20;12.75;;;7.50;;
40951;SDS011;26682;51.660;19.338;2023-06-10T03:32:03;8.77;;;7.95;;
40951;SDS011;26682;51.660;19.338;2023-06-10T03:34:47;7.90;;;6.93;;
40951;SDS011;26682;51.660;19.338;2023-06-10T03:37:30;8.25;;;7.25;;
40951;SDS011;26682;51.660;19.338;2023-06-10T03:40:12;7.55;;;6.80;;
40951;SDS011;26682;51.660;19.338;2023-06-10T03:42:58;8.30;;;7.32;;
40951;SDS011;26682;51.660;19.338;2023-06-10T03:45:43;10.23;;;7.20;;
40951;SDS011;26682;51.660;19.338;2023-06-10T03:48:28;9.65;;;7.28;;
40951;SDS011;26682;51.660;19.338;2023-06-10T03:51:12;7.95;;;6.88;;
40951;SDS011;26682;51.660;19.338;2023-06-10T03:53:55;8.38;;;7.15;;
40951;SDS011;26682;51.660;19.338;2023-06-10T03:56:38;10.05;;;7.30;;
40951;SDS011;26682;51.660;19.338;2023-06-10T03:59:21;7.93;;;7.13;;
40951;SDS011;26682;51.660;19.338;2023-06-10T04:02:03;8.50;;;7.45;;
40951;SDS011;26682;51.660;19.338;2023-06-10T04:04:47;9.68;;;7.40;;
40951;SDS011;26682;51.660;19.338;2023-06-10T04:07:30;11.02;;;7.40;;
40951;SDS011;26682;51.660;19.338;2023-06-10T04:10:13;10.77;;;7.35;;
40951;SDS011;26682;51.660;19.338;2023-06-10T04:12:56;8.02;;;7.15;;
40951;SDS011;26682;51.660;19.338;2023-06-10T04:15:42;9.93;;;8.27;;
40951;SDS011;26682;51.660;19.338;2023-06-10T04:18:29;8.65;;;7.32;;
40951;SDS011;26682;51.660;19.338;2023-06-10T04:21:16;8.48;;;7.63;;
40951;SDS011;26682;51.660;19.338;2023-06-10T04:24:00;10.40;;;8.65;;
40951;SDS011;26682;51.660;19.338;2023-06-10T04:26:43;9.10;;;8.20;;
40951;SDS011;26682;51.660;19.338;2023-06-10T04:29:27;9.88;;;8.98;;
40951;SDS011;26682;51.660;19.338;2023-06-10T04:32:10;10.95;;;9.18;;
40951;SDS011;26682;51.660;19.338;2023-06-10T04:34:52;12.70;;;9.23;;
40951;SDS011;26682;51.660;19.338;2023-06-10T04:37:35;11.20;;;9.88;;
40951;SDS011;26682;51.660;19.338;2023-06-10T04:40:17;13.70;;;10.45;;
40951;SDS011;26682;51.660;19.338;2023-06-10T04:43:01;12.80;;;10.50;;
40951;SDS011;26682;51.660;19.338;2023-06-10T04:45:45;12.73;;;11.57;;
40951;SDS011;26682;51.660;19.338;2023-06-10T04:48:29;12.00;;;10.80;;
40951;SDS011;26682;51.660;19.338;2023-06-10T04:51:11;15.75;;;11.52;;
40951;SDS011;26682;51.660;19.338;2023-06-10T04:53:55;11.73;;;10.60;;
40951;SDS011;26682;51.660;19.338;2023-06-10T04:56:37;11.70;;;10.27;;
40951;SDS011;26682;51.660;19.338;2023-06-10T04:59:21;14.32;;;9.95;;
40951;SDS011;26682;51.660;19.338;2023-06-10T05:02:04;13.20;;;9.77;;
40951;SDS011;26682;51.660;19.338;2023-06-10T05:04:47;9.18;;;8.27;;
40951;SDS011;26682;51.660;19.338;2023-06-10T05:07:30;9.13;;;7.80;;
40951;SDS011;26682;51.660;19.338;2023-06-10T05:10:13;10.20;;;7.65;;
40951;SDS011;26682;51.660;19.338;2023-06-10T05:12:55;8.88;;;7.40;;
40951;SDS011;26682;51.660;19.338;2023-06-10T05:15:38;7.88;;;7.07;;
40951;SDS011;26682;51.660;19.338;2023-06-10T05:18:22;10.57;;;6.65;;
40951;SDS011;26682;51.660;19.338;2023-06-10T05:21:05;9.45;;;6.05;;
40951;SDS011;26682;51.660;19.338;2023-06-10T05:23:49;9.65;;;6.80;;
40951;SDS011;26682;51.660;19.338;2023-06-10T05:26:32;7.30;;;5.75;;
40951;SDS011;26682;51.660;19.338;2023-06-10T05:29:19;14.77;;;6.10;;
40951;SDS011;26682;51.660;19.338;2023-06-10T05:32:02;11.10;;;5.85;;
40951;SDS011;26682;51.660;19.338;2023-06-10T05:34:45;9.52;;;5.38;;
40951;SDS011;26682;51.660;19.338;2023-06-10T05:37:29;7.30;;;5.85;;
40951;SDS011;26682;51.660;19.338;2023-06-10T05:40:11;7.97;;;5.18;;
40951;SDS011;26682;51.660;19.338;2023-06-10T05:42:54;11.35;;;6.15;;
40951;SDS011;26682;51.660;19.338;2023-06-10T05:45:37;12.82;;;5.35;;
40951;SDS011;26682;51.660;19.338;2023-06-10T05:48:22;8.97;;;5.10;;
40951;SDS011;26682;51.660;19.338;2023-06-10T05:51:05;9.95;;;5.55;;
40951;SDS011;26682;51.660;19.338;2023-06-10T05:53:50;8.13;;;5.67;;
40951;SDS011;26682;51.660;19.338;2023-06-10T05:56:32;10.75;;;5.68;;
40951;SDS011;26682;51.660;19.338;2023-06-10T05:59:16;10.20;;;5.55;;
40951;SDS011;26682;51.660;19.338;2023-06-10T06:01:58;6.57;;;5.00;;
40951;SDS011;26682;51.660;19.338;2023-06-10T06:04:42;8.40;;;5.38;;
40951;SDS011;26682;51.660;19.338;2023-06-10T06:07:24;10.52;;;5.45;;
40951;SDS011;26682;51.660;19.338;2023-06-10T06:10:07;6.35;;;5.55;;
40951;SDS011;26682;51.660;19.338;2023-06-10T06:12:50;8.02;;;5.25;;
40951;SDS011;26682;51.660;19.338;2023-06-10T06:15:33;9.35;;;5.00;;
40951;SDS011;26682;51.660;19.338;2023-06-10T06:18:15;12.45;;;5.65;;
40951;SDS011;26682;51.660;19.338;2023-06-10T06:20:58;7.63;;;5.00;;
40951;SDS011;26682;51.660;19.338;2023-06-10T06:23:41;12.98;;;5.80;;
40951;SDS011;26682;51.660;19.338;2023-06-10T06:26:24;9.15;;;5.93;;
40951;SDS011;26682;51.660;19.338;2023-06-10T06:29:07;11.38;;;6.05;;
40951;SDS011;26682;51.660;19.338;2023-06-10T06:31:51;9.38;;;5.47;;
40951;SDS011;26682;51.660;19.338;2023-06-10T06:34:33;7.45;;;5.55;;
40951;SDS011;26682;51.660;19.338;2023-06-10T06:37:17;10.02;;;4.78;;
40951;SDS011;26682;51.660;19.338;2023-06-10T06:39:59;9.20;;;5.85;;
40951;SDS011;26682;51.660;19.338;2023-06-10T06:45:57;15.02;;;6.28;;
40951;SDS011;26682;51.660;19.338;2023-06-10T06:48:40;7.72;;;5.22;;
40951;SDS011;26682;51.660;19.338;2023-06-10T06:51:22;8.73;;;5.88;;
40951;SDS011;26682;51.660;19.338;2023-06-10T06:54:05;8.82;;;5.93;;
40951;SDS011;26682;51.660;19.338;2023-06-10T06:56:48;9.50;;;5.60;;
40951;SDS011;26682;51.660;19.338;2023-06-10T06:59:30;7.38;;;5.60;;
40951;SDS011;26682;51.660;19.338;2023-06-10T07:02:13;12.18;;;5.55;;
40951;SDS011;26682;51.660;19.338;2023-06-10T07:04:56;10.13;;;6.15;;
40951;SDS011;26682;51.660;19.338;2023-06-10T07:07:39;7.10;;;6.13;;
40951;SDS011;26682;51.660;19.338;2023-06-10T07:10:25;10.27;;;6.70;;
40951;SDS011;26682;51.660;19.338;2023-06-10T07:13:09;8.77;;;5.53;;
40951;SDS011;26682;51.660;19.338;2023-06-10T07:15:56;7.32;;;5.10;;
40951;SDS011;26682;51.660;19.338;2023-06-10T07:18:38;11.25;;;5.65;;
40951;SDS011;26682;51.660;19.338;2023-06-10T07:21:21;10.95;;;5.90;;
40951;SDS011;26682;51.660;19.338;2023-06-10T07:24:05;9.57;;;5.53;;
40951;SDS011;26682;51.660;19.338;2023-06-10T07:26:48;8.30;;;6.30;;
40951;SDS011;26682;51.660;19.338;2023-06-10T07:29:31;9.88;;;5.50;;
40951;SDS011;26682;51.660;19.338;2023-06-10T07:32:16;7.95;;;5.55;;
40951;SDS011;26682;51.660;19.338;2023-06-10T07:35:00;8.40;;;5.82;;
40951;SDS011;26682;51.660;19.338;2023-06-10T07:37:43;11.15;;;5.78;;
40951;SDS011;26682;51.660;19.338;2023-06-10T07:40:26;9.02;;;5.72;;
40951;SDS011;26682;51.660;19.338;2023-06-10T07:43:11;8.63;;;6.05;;
40951;SDS011;26682;51.660;19.338;2023-06-10T07:45:54;8.27;;;5.80;;
40951;SDS011;26682;51.660;19.338;2023-06-10T07:48:37;13.05;;;5.97;;
40951;SDS011;26682;51.660;19.338;2023-06-10T07:51:20;8.13;;;5.57;;
40951;SDS011;26682;51.660;19.338;2023-06-10T07:54:04;6.28;;;5.00;;
40951;SDS011;26682;51.660;19.338;2023-06-10T07:56:47;8.50;;;5.32;;
40951;SDS011;26682;51.660;19.338;2023-06-10T07:59:29;9.75;;;5.15;;
40951;SDS011;26682;51.660;19.338;2023-06-10T08:02:12;7.45;;;4.93;;
40951;SDS011;26682;51.660;19.338;2023-06-10T08:04:55;11.73;;;5.15;;
40951;SDS011;26682;51.660;19.338;2023-06-10T08:07:38;6.25;;;4.97;;
40951;SDS011;26682;51.660;19.338;2023-06-10T08:10:22;5.22;;;4.68;;
40951;SDS011;26682;51.660;19.338;2023-06-10T08:13:05;7.78;;;4.63;;
40951;SDS011;26682;51.660;19.338;2023-06-10T08:15:50;9.45;;;4.82;;
40951;SDS011;26682;51.660;19.338;2023-06-10T08:18:35;9.70;;;4.22;;
40951;SDS011;26682;51.660;19.338;2023-06-10T08:21:18;5.25;;;4.10;;
40951;SDS011;26682;51.660;19.338;2023-06-10T08:24:01;10.00;;;4.47;;
40951;SDS011;26682;51.660;19.338;2023-06-10T08:26:44;5.07;;;4.45;;
40951;SDS011;26682;51.660;19.338;2023-06-10T08:29:26;8.07;;;4.72;;
40951;SDS011;26682;51.660;19.338;2023-06-10T08:32:09;10.02;;;5.03;;
40951;SDS011;26682;51.660;19.338;2023-06-10T08:34:55;13.00;;;4.70;;
40951;SDS011;26682;51.660;19.338;2023-06-10T08:37:37;5.50;;;4.20;;
40951;SDS011;26682;51.660;19.338;2023-06-10T08:40:20;6.18;;;4.63;;
40951;SDS011;26682;51.660;19.338;2023-06-10T08:43:07;6.82;;;4.43;;
40951;SDS011;26682;51.660;19.338;2023-06-10T08:46:04;8.35;;;4.60;;
40951;SDS011;26682;51.660;19.338;2023-06-10T08:48:49;9.00;;;4.40;;
40951;SDS011;26682;51.660;19.338;2023-06-10T08:51:37;6.53;;;4.45;;
40951;SDS011;26682;51.660;19.338;2023-06-10T08:54:23;7.57;;;5.35;;
40951;SDS011;26682;51.660;19.338;2023-06-10T08:57:08;8.60;;;4.40;;
40951;SDS011;26682;51.660;19.338;2023-06-10T08:59:51;6.65;;;4.00;;
40951;SDS011;26682;51.660;19.338;2023-06-10T09:02:36;4.85;;;3.80;;
40951;SDS011;26682;51.660;19.338;2023-06-10T09:05:20;8.73;;;4.07;;
40951;SDS011;26682;51.660;19.338;2023-06-10T09:08:03;6.10;;;3.72;;
40951;SDS011;26682;51.660;19.338;2023-06-10T09:10:49;10.35;;;4.05;;
40951;SDS011;26682;51.660;19.338;2023-06-10T09:13:32;7.07;;;4.03;;
40951;SDS011;26682;51.660;19.338;2023-06-10T09:16:15;7.95;;;4.35;;
40951;SDS011;26682;51.660;19.338;2023-06-10T09:18:58;6.25;;;4.43;;
40951;SDS011;26682;51.660;19.338;2023-06-10T09:21:40;7.80;;;4.13;;
40951;SDS011;26682;51.660;19.338;2023-06-10T09:24:23;7.07;;;3.97;;
40951;SDS011;26682;51.660;19.338;2023-06-10T09:27:09;7.15;;;3.63;;
40951;SDS011;26682;51.660;19.338;2023-06-10T09:29:55;8.30;;;4.35;;
40951;SDS011;26682;51.660;19.338;2023-06-10T09:32:39;8.40;;;4.47;;
40951;SDS011;26682;51.660;19.338;2023-06-10T09:35:22;18.23;;;4.45;;
40951;SDS011;26682;51.660;19.338;2023-06-10T09:38:06;7.27;;;4.17;;
40951;SDS011;26682;51.660;19.338;2023-06-10T09:40:52;13.68;;;3.85;;
40951;SDS011;26682;51.660;19.338;2023-06-10T09:43:42;6.75;;;3.55;;
40951;SDS011;26682;51.660;19.338;2023-06-10T09:46:29;7.30;;;4.00;;
40951;SDS011;26682;51.660;19.338;2023-06-10T09:49:15;6.32;;;4.07;;
40951;SDS011;26682;51.660;19.338;2023-06-10T09:51:58;7.60;;;3.80;;
40951;SDS011;26682;51.660;19.338;2023-06-10T09:54:41;4.93;;;3.85;;
40951;SDS011;26682;51.660;19.338;2023-06-10T09:57:30;5.10;;;3.70;;
40951;SDS011;26682;51.660;19.338;2023-06-10T10:00:18;7.78;;;3.47;;
40951;SDS011;26682;51.660;19.338;2023-06-10T10:03:01;5.47;;;3.22;;
40951;SDS011;26682;51.660;19.338;2023-06-10T10:05:45;7.85;;;3.25;;
40951;SDS011;26682;51.660;19.338;2023-06-10T10:08:28;5.03;;;3.30;;
40951;SDS011;26682;51.660;19.338;2023-06-10T10:11:12;7.07;;;3.60;;
40951;SDS011;26682;51.660;19.338;2023-06-10T10:13:56;6.78;;;3.13;;
40951;SDS011;26682;51.660;19.338;2023-06-10T10:16:40;8.95;;;3.28;;
40951;SDS011;26682;51.660;19.338;2023-06-10T10:19:25;6.35;;;3.30;;
40951;SDS011;26682;51.660;19.338;2023-06-10T10:22:14;10.35;;;3.15;;
40951;SDS011;26682;51.660;19.338;2023-06-10T10:25:10;9.05;;;3.20;;
40951;SDS011;26682;51.660;19.338;2023-06-10T10:28:11;6.10;;;3.60;;
40951;SDS011;26682;51.660;19.338;2023-06-10T10:30:56;4.10;;;3.25;;
40951;SDS011;26682;51.660;19.338;2023-06-10T10:34:06;4.40;;;3.00;;
40951;SDS011;26682;51.660;19.338;2023-06-10T10:36:48;8.05;;;2.85;;
40951;SDS011;26682;51.660;19.338;2023-06-10T10:39:33;5.90;;;2.80;;
40951;SDS011;26682;51.660;19.338;2023-06-10T10:42:17;12.57;;;3.10;;
40951;SDS011;26682;51.660;19.338;2023-06-10T10:45:01;7.60;;;3.00;;
40951;SDS011;26682;51.660;19.338;2023-06-10T10:47:51;3.83;;;2.72;;
40951;SDS011;26682;51.660;19.338;2023-06-10T10:50:36;14.77;;;3.50;;
40951;SDS011;26682;51.660;19.338;2023-06-10T10:53:19;9.70;;;3.13;;
40951;SDS011;26682;51.660;19.338;2023-06-10T10:59:06;12.80;;;3.40;;
40951;SDS011;26682;51.660;19.338;2023-06-10T11:01:51;5.60;;;2.90;;
40951;SDS011;26682;51.660;19.338;2023-06-10T11:04:34;4.07;;;2.88;;
40951;SDS011;26682;51.660;19.338;2023-06-10T11:07:19;6.43;;;3.30;;
40951;SDS011;26682;51.660;19.338;2023-06-10T11:10:08;5.78;;;3.53;;
40951;SDS011;26682;51.660;19.338;2023-06-10T11:12:56;9.10;;;3.92;;
40951;SDS011;26682;51.660;19.338;2023-06-10T11:15:39;9.00;;;3.78;;
40951;SDS011;26682;51.660;19.338;2023-06-10T11:18:29;6.78;;;3.20;;
40951;SDS011;26682;51.660;19.338;2023-06-10T11:21:17;5.70;;;3.25;;
40951;SDS011;26682;51.660;19.338;2023-06-10T11:24:00;12.38;;;3.45;;
40951;SDS011;26682;51.660;19.338;2023-06-10T11:27:14;7.20;;;3.00;;
40951;SDS011;26682;51.660;19.338;2023-06-10T11:32:50;5.80;;;2.97;;
40951;SDS011;26682;51.660;19.338;2023-06-10T11:35:35;9.13;;;3.20;;
40951;SDS011;26682;51.660;19.338;2023-06-10T11:38:18;4.18;;;2.92;;
40951;SDS011;26682;51.660;19.338;2023-06-10T11:41:07;5.25;;;3.13;;
40951;SDS011;26682;51.660;19.338;2023-06-10T11:43:51;3.80;;;2.80;;
40951;SDS011;26682;51.660;19.338;2023-06-10T11:46:36;7.10;;;2.90;;
40951;SDS011;26682;51.660;19.338;2023-06-10T11:49:49;5.05;;;3.08;;
40951;SDS011;26682;51.660;19.338;2023-06-10T11:52:38;8.25;;;3.05;;
40951;SDS011;26682;51.660;19.338;2023-06-10T11:55:44;8.27;;;3.22;;
40951;SDS011;26682;51.660;19.338;2023-06-10T11:58:30;6.80;;;2.97;;
40951;SDS011;26682;51.660;19.338;2023-06-10T12:01:18;5.68;;;3.08;;
40951;SDS011;26682;51.660;19.338;2023-06-10T12:04:10;3.10;;;2.75;;
40951;SDS011;26682;51.660;19.338;2023-06-10T12:06:58;6.50;;;2.92;;
40951;SDS011;26682;51.660;19.338;2023-06-10T12:09:42;10.23;;;3.30;;
40951;SDS011;26682;51.660;19.338;2023-06-10T12:12:51;4.95;;;3.38;;
40951;SDS011;26682;51.660;19.338;2023-06-10T12:15:36;5.90;;;3.40;;
40951;SDS011;26682;51.660;19.338;2023-06-10T12:18:19;7.65;;;3.53;;
40951;SDS011;26682;51.660;19.338;2023-06-10T12:21:03;5.80;;;3.35;;
40951;SDS011;26682;51.660;19.338;2023-06-10T12:24:00;3.95;;;2.92;;
40951;SDS011;26682;51.660;19.338;2023-06-10T12:26:48;4.85;;;3.47;;
40951;SDS011;26682;51.660;19.338;2023-06-10T12:29:35;5.90;;;3.25;;
40951;SDS011;26682;51.660;19.338;2023-06-10T12:32:22;8.18;;;3.20;;
40951;SDS011;26682;51.660;19.338;2023-06-10T12:35:20;5.30;;;3.00;;
40951;SDS011;26682;51.660;19.338;2023-06-10T12:38:13;6.13;;;2.90;;
40951;SDS011;26682;51.660;19.338;2023-06-10T12:41:20;5.00;;;3.22;;
40951;SDS011;26682;51.660;19.338;2023-06-10T12:44:03;4.97;;;3.33;;
40951;SDS011;26682;51.660;19.338;2023-06-10T12:46:53;8.07;;;3.38;;
40951;SDS011;26682;51.660;19.338;2023-06-10T12:49:36;7.68;;;3.33;;
40951;SDS011;26682;51.660;19.338;2023-06-10T12:52:20;8.07;;;3.70;;
40951;SDS011;26682;51.660;19.338;2023-06-10T12:55:06;8.47;;;3.00;;
40951;SDS011;26682;51.660;19.338;2023-06-10T12:57:50;9.18;;;3.63;;
40951;SDS011;26682;51.660;19.338;2023-06-10T13:00:34;6.30;;;3.90;;
40951;SDS011;26682;51.660;19.338;2023-06-10T13:03:22;5.88;;;3.30;;
40951;SDS011;26682;51.660;19.338;2023-06-10T13:06:05;5.75;;;2.90;;
40951;SDS011;26682;51.660;19.338;2023-06-10T13:08:49;3.88;;;3.20;;
40951;SDS011;26682;51.660;19.338;2023-06-10T13:11:35;5.65;;;3.47;;
40951;SDS011;26682;51.660;19.338;2023-06-10T13:14:18;5.47;;;3.17;;
40951;SDS011;26682;51.660;19.338;2023-06-10T13:17:00;7.45;;;3.50;;
40951;SDS011;26682;51.660;19.338;2023-06-10T13:19:43;5.97;;;3.20;;
40951;SDS011;26682;51.660;19.338;2023-06-10T13:22:28;6.13;;;3.42;;
40951;SDS011;26682;51.660;19.338;2023-06-10T13:25:12;6.38;;;3.50;;
40951;SDS011;26682;51.660;19.338;2023-06-10T13:27:56;7.38;;;3.00;;
40951;SDS011;26682;51.660;19.338;2023-06-10T13:30:40;11.60;;;3.22;;
40951;SDS011;26682;51.660;19.338;2023-06-10T13:33:22;4.32;;;3.17;;
40951;SDS011;26682;51.660;19.338;2023-06-10T13:36:05;4.38;;;3.15;;
40951;SDS011;26682;51.660;19.338;2023-06-10T13:38:47;6.13;;;3.20;;
40951;SDS011;26682;51.660;19.338;2023-06-10T13:41:30;3.55;;;2.97;;
40951;SDS011;26682;51.660;19.338;2023-06-10T13:44:12;6.45;;;3.40;;
40951;SDS011;26682;51.660;19.338;2023-06-10T13:46:55;6.07;;;3.28;;
40951;SDS011;26682;51.660;19.338;2023-06-10T13:49:37;9.73;;;4.15;;
40951;SDS011;26682;51.660;19.338;2023-06-10T13:52:20;8.80;;;3.55;;
40951;SDS011;26682;51.660;19.338;2023-06-10T13:55:03;8.60;;;3.17;;
40951;SDS011;26682;51.660;19.338;2023-06-10T13:57:45;8.95;;;3.17;;
40951;SDS011;26682;51.660;19.338;2023-06-10T14:00:28;9.45;;;3.45;;
40951;SDS011;26682;51.660;19.338;2023-06-10T14:03:11;6.68;;;3.58;;
40951;SDS011;26682;51.660;19.338;2023-06-10T14:05:54;4.72;;;3.00;;
40951;SDS011;26682;51.660;19.338;2023-06-10T14:08:36;6.03;;;3.13;;
40951;SDS011;26682;51.660;19.338;2023-06-10T14:11:19;5.22;;;3.33;;
40951;SDS011;26682;51.660;19.338;2023-06-10T14:14:02;6.57;;;3.53;;
40951;SDS011;26682;51.660;19.338;2023-06-10T14:16:45;4.82;;;3.03;;
40951;SDS011;26682;51.660;19.338;2023-06-10T14:19:28;5.00;;;3.08;;
40951;SDS011;26682;51.660;19.338;2023-06-10T14:22:11;5.45;;;3.40;;
40951;SDS011;26682;51.660;19.338;2023-06-10T14:24:53;5.18;;;3.40;;
40951;SDS011;26682;51.660;19.338;2023-06-10T14:27:36;6.50;;;3.47;;
40951;SDS011;26682;51.660;19.338;2023-06-10T14:30:19;4.18;;;3.25;;
40951;SDS011;26682;51.660;19.338;2023-06-10T14:33:02;4.63;;;2.90;;
40951;SDS011;26682;51.660;19.338;2023-06-10T14:35:44;4.55;;;3.10;;
40951;SDS011;26682;51.660;19.338;2023-06-10T14:38:27;4.38;;;3.30;;
40951;SDS011;26682;51.660;19.338;2023-06-10T14:41:09;6.40;;;3.33;;
40951;SDS011;26682;51.660;19.338;2023-06-10T14:43:52;4.38;;;3.35;;
40951;SDS011;26682;51.660;19.338;2023-06-10T14:46:34;4.63;;;3.08;;
40951;SDS011;26682;51.660;19.338;2023-06-10T14:49:17;6.38;;;3.10;;
40951;SDS011;26682;51.660;19.338;2023-06-10T14:52:00;9.68;;;3.20;;
40951;SDS011;26682;51.660;19.338;2023-06-10T14:54:43;5.18;;;3.03;;
40951;SDS011;26682;51.660;19.338;2023-06-10T14:57:25;7.53;;;3.42;;
40951;SDS011;26682;51.660;19.338;2023-06-10T15:00:08;7.03;;;3.45;;
40951;SDS011;26682;51.660;19.338;2023-06-10T15:02:51;6.85;;;3.00;;
40951;SDS011;26682;51.660;19.338;2023-06-10T15:05:34;7.53;;;3.35;;
40951;SDS011;26682;51.660;19.338;2023-06-10T15:08:18;5.40;;;3.20;;
40951;SDS011;26682;51.660;19.338;2023-06-10T15:11:00;6.07;;;3.50;;
40951;SDS011;26682;51.660;19.338;2023-06-10T15:13:43;3.72;;;3.30;;
40951;SDS011;26682;51.660;19.338;2023-06-10T15:16:26;4.47;;;3.05;;
40951;SDS011;26682;51.660;19.338;2023-06-10T15:19:08;7.68;;;3.33;;
40951;SDS011;26682;51.660;19.338;2023-06-10T15:21:51;9.80;;;3.50;;
40951;SDS011;26682;51.660;19.338;2023-06-10T15:24:34;7.20;;;3.15;;
40951;SDS011;26682;51.660;19.338;2023-06-10T15:27:16;4.75;;;3.38;;
40951;SDS011;26682;51.660;19.338;2023-06-10T15:29:58;7.88;;;2.97;;
40951;SDS011;26682;51.660;19.338;2023-06-10T15:32:41;5.15;;;3.17;;
40951;SDS011;26682;51.660;19.338;2023-06-10T15:35:24;4.45;;;3.00;;
40951;SDS011;26682;51.660;19.338;2023-06-10T15:38:08;3.40;;;2.80;;
40951;SDS011;26682;51.660;19.338;2023-06-10T15:40:50;6.47;;;2.80;;
40951;SDS011;26682;51.660;19.338;2023-06-10T15:43:33;6.22;;;3.00;;
40951;SDS011;26682;51.660;19.338;2023-06-10T15:46:15;6.65;;;3.08;;
40951;SDS011;26682;51.660;19.338;2023-06-10T15:48:58;6.00;;;3.38;;
40951;SDS011;26682;51.660;19.338;2023-06-10T15:51:40;4.93;;;3.33;;
40951;SDS011;26682;51.660;19.338;2023-06-10T15:54:29;5.60;;;2.88;;
40951;SDS011;26682;51.660;19.338;2023-06-10T15:57:12;7.38;;;3.25;;
40951;SDS011;26682;51.660;19.338;2023-06-10T15:59:57;7.68;;;2.78;;
40951;SDS011;26682;51.660;19.338;2023-06-10T16:02:39;6.63;;;2.80;;
40951;SDS011;26682;51.660;19.338;2023-06-10T16:05:22;5.20;;;2.95;;
40951;SDS011;26682;51.660;19.338;2023-06-10T16:08:04;9.32;;;2.90;;
40951;SDS011;26682;51.660;19.338;2023-06-10T16:10:47;5.22;;;2.95;;
40951;SDS011;26682;51.660;19.338;2023-06-10T16:13:29;5.35;;;2.88;;
40951;SDS011;26682;51.660;19.338;2023-06-10T16:16:12;4.47;;;2.95;;
40951;SDS011;26682;51.660;19.338;2023-06-10T16:18:55;4.13;;;2.70;;
40951;SDS011;26682;51.660;19.338;2023-06-10T16:21:38;5.43;;;3.28;;